sensor_id;sensor_type;location;lat;lon;timestamp;P1;durP1;ratioP1;P2;durP2;ratioP2
25127;SDS011;13107;51.304;6.866;2023-03-14T00:01:48;4.95;;;1.30;;
25127;SDS011;13107;51.304;6.866;2023-03-14T00:05:50;4.40;;;1.83;;
25127;SDS011;13107;51.304;6.866;2023-03-14T00:09:52;7.15;;;1.55;;
25127;SDS011;13107;51.304;6.866;2023-03-14T00:13:53;7.60;;;1.48;;
25127;SDS011;13107;51.304;6.866;2023-03-14T00:17:55;7.72;;;1.12;;
25127;SDS011;13107;51.304;6.866;2023-03-14T00:21:57;9.45;;;1.50;;
25127;SDS011;13107;51.304;6.866;2023-03-14T00:26:02;8.35;;;1.45;;
25127;SDS011;13107;51.304;6.866;2023-03-14T00:30:06;7.85;;;1.30;;
25127;SDS011;13107;51.304;6.866;2023-03-14T00:34:11;6.37;;;1.50;;
25127;SDS011;13107;51.304;6.866;2023-03-14T00:38:12;10.63;;;1.30;;
25127;SDS011;13107;51.304;6.866;2023-03-14T00:42:14;6.72;;;1.40;;
25127;SDS011;13107;51.304;6.866;2023-03-14T00:46:16;3.62;;;0.88;;
25127;SDS011;13107;51.304;6.866;2023-03-14T00:50:18;3.33;;;0.80;;
25127;SDS011;13107;51.304;6.866;2023-03-14T00:54:20;3.30;;;0.62;;
25127;SDS011;13107;51.304;6.866;2023-03-14T00:58:22;4.90;;;0.80;;
25127;SDS011;13107;51.304;6.866;2023-03-14T01:02:24;5.45;;;1.10;;
25127;SDS011;13107;51.304;6.866;2023-03-14T01:06:26;5.57;;;0.90;;
25127;SDS011;13107;51.304;6.866;2023-03-14T01:10:30;9.68;;;1.42;;
25127;SDS011;13107;51.304;6.866;2023-03-14T01:14:31;6.22;;;1.20;;
25127;SDS011;13107;51.304;6.866;2023-03-14T01:18:34;9.85;;;1.20;;
25127;SDS011;13107;51.304;6.866;2023-03-14T01:22:36;6.15;;;1.25;;
25127;SDS011;13107;51.304;6.866;2023-03-14T01:26:40;3.28;;;0.82;;
25127;SDS011;13107;51.304;6.866;2023-03-14T01:30:42;3.85;;;0.80;;
25127;SDS011;13107;51.304;6.866;2023-03-14T01:34:44;4.25;;;0.93;;
25127;SDS011;13107;51.304;6.866;2023-03-14T01:38:45;9.38;;;0.90;;
25127;SDS011;13107;51.304;6.866;2023-03-14T01:42:57;5.32;;;1.00;;
25127;SDS011;13107;51.304;6.866;2023-03-14T01:47:06;5.65;;;1.12;;
25127;SDS011;13107;51.304;6.866;2023-03-14T01:51:12;4.62;;;0.80;;
25127;SDS011;13107;51.304;6.866;2023-03-14T01:55:19;6.47;;;1.00;;
25127;SDS011;13107;51.304;6.866;2023-03-14T01:59:24;4.45;;;0.88;;
25127;SDS011;13107;51.304;6.866;2023-03-14T02:03:27;9.82;;;1.33;;
25127;SDS011;13107;51.304;6.866;2023-03-14T02:11:36;8.90;;;1.00;;
25127;SDS011;13107;51.304;6.866;2023-03-14T02:15:38;6.75;;;1.05;;
25127;SDS011;13107;51.304;6.866;2023-03-14T02:24:09;10.32;;;1.60;;
25127;SDS011;13107;51.304;6.866;2023-03-14T02:28:32;9.73;;;1.23;;
25127;SDS011;13107;51.304;6.866;2023-03-14T02:32:34;11.32;;;1.45;;
25127;SDS011;13107;51.304;6.866;2023-03-14T02:36:38;7.00;;;1.17;;
25127;SDS011;13107;51.304;6.866;2023-03-14T02:40:40;5.85;;;1.10;;
25127;SDS011;13107;51.304;6.866;2023-03-14T02:49:02;8.80;;;1.20;;
25127;SDS011;13107;51.304;6.866;2023-03-14T02:53:14;8.00;;;1.27;;
25127;SDS011;13107;51.304;6.866;2023-03-14T02:57:19;7.70;;;1.37;;
25127;SDS011;13107;51.304;6.866;2023-03-14T03:01:21;5.40;;;1.30;;
25127;SDS011;13107;51.304;6.866;2023-03-14T03:05:23;8.25;;;1.35;;
25127;SDS011;13107;51.304;6.866;2023-03-14T03:09:24;4.97;;;1.00;;
25127;SDS011;13107;51.304;6.866;2023-03-14T03:13:26;5.93;;;1.58;;
25127;SDS011;13107;51.304;6.866;2023-03-14T03:17:28;10.40;;;1.37;;
25127;SDS011;13107;51.304;6.866;2023-03-14T03:21:30;9.70;;;1.27;;
25127;SDS011;13107;51.304;6.866;2023-03-14T03:25:31;7.37;;;1.17;;
25127;SDS011;13107;51.304;6.866;2023-03-14T03:29:33;7.90;;;1.10;;
25127;SDS011;13107;51.304;6.866;2023-03-14T03:33:35;6.30;;;0.80;;
25127;SDS011;13107;51.304;6.866;2023-03-14T03:37:38;6.37;;;1.10;;
25127;SDS011;13107;51.304;6.866;2023-03-14T03:41:39;6.68;;;1.12;;
25127;SDS011;13107;51.304;6.866;2023-03-14T03:45:41;8.07;;;1.50;;
25127;SDS011;13107;51.304;6.866;2023-03-14T03:49:43;9.68;;;1.60;;
25127;SDS011;13107;51.304;6.866;2023-03-14T03:53:44;5.10;;;0.90;;
25127;SDS011;13107;51.304;6.866;2023-03-14T03:57:46;7.80;;;1.40;;
25127;SDS011;13107;51.304;6.866;2023-03-14T04:01:48;5.43;;;0.90;;
25127;SDS011;13107;51.304;6.866;2023-03-14T04:06:03;5.60;;;0.85;;
25127;SDS011;13107;51.304;6.866;2023-03-14T04:10:07;7.93;;;1.30;;
25127;SDS011;13107;51.304;6.866;2023-03-14T04:14:09;7.12;;;1.15;;
25127;SDS011;13107;51.304;6.866;2023-03-14T04:18:11;4.53;;;0.90;;
25127;SDS011;13107;51.304;6.866;2023-03-14T04:22:13;6.53;;;1.10;;
25127;SDS011;13107;51.304;6.866;2023-03-14T04:26:15;5.18;;;1.00;;
25127;SDS011;13107;51.304;6.866;2023-03-14T04:30:17;5.10;;;1.10;;
25127;SDS011;13107;51.304;6.866;2023-03-14T04:34:18;6.18;;;1.15;;
25127;SDS011;13107;51.304;6.866;2023-03-14T04:38:20;3.83;;;0.47;;
25127;SDS011;13107;51.304;6.866;2023-03-14T04:42:22;2.90;;;0.40;;
25127;SDS011;13107;51.304;6.866;2023-03-14T04:46:23;2.42;;;0.40;;
25127;SDS011;13107;51.304;6.866;2023-03-14T04:50:25;2.28;;;0.35;;
25127;SDS011;13107;51.304;6.866;2023-03-14T04:54:27;2.87;;;0.32;;
25127;SDS011;13107;51.304;6.866;2023-03-14T04:58:29;1.12;;;0.40;;
25127;SDS011;13107;51.304;6.866;2023-03-14T05:02:30;0.77;;;0.40;;
25127;SDS011;13107;51.304;6.866;2023-03-14T05:06:32;0.77;;;0.30;;
25127;SDS011;13107;51.304;6.866;2023-03-14T05:10:34;0.95;;;0.50;;
25127;SDS011;13107;51.304;6.866;2023-03-14T05:14:35;1.52;;;0.65;;
25127;SDS011;13107;51.304;6.866;2023-03-14T05:18:37;4.07;;;1.37;;
25127;SDS011;13107;51.304;6.866;2023-03-14T05:22:39;5.55;;;1.85;;
25127;SDS011;13107;51.304;6.866;2023-03-14T05:26:41;8.75;;;2.72;;
25127;SDS011;13107;51.304;6.866;2023-03-14T05:30:42;8.52;;;3.05;;
25127;SDS011;13107;51.304;6.866;2023-03-14T05:34:44;8.38;;;2.70;;
25127;SDS011;13107;51.304;6.866;2023-03-14T05:38:46;7.47;;;2.45;;
25127;SDS011;13107;51.304;6.866;2023-03-14T05:42:47;10.77;;;2.05;;
25127;SDS011;13107;51.304;6.866;2023-03-14T05:46:49;6.70;;;1.52;;
25127;SDS011;13107;51.304;6.866;2023-03-14T05:50:55;3.65;;;1.37;;
25127;SDS011;13107;51.304;6.866;2023-03-14T05:54:58;6.70;;;1.10;;
25127;SDS011;13107;51.304;6.866;2023-03-14T05:58:59;4.45;;;1.00;;
25127;SDS011;13107;51.304;6.866;2023-03-14T06:03:03;7.10;;;1.00;;
25127;SDS011;13107;51.304;6.866;2023-03-14T06:07:07;5.00;;;0.90;;
25127;SDS011;13107;51.304;6.866;2023-03-14T06:11:09;3.50;;;0.50;;
25127;SDS011;13107;51.304;6.866;2023-03-14T06:15:11;1.65;;;0.20;;
25127;SDS011;13107;51.304;6.866;2023-03-14T06:19:13;2.05;;;0.30;;
25127;SDS011;13107;51.304;6.866;2023-03-14T06:23:14;1.58;;;0.45;;
25127;SDS011;13107;51.304;6.866;2023-03-14T06:27:16;1.98;;;0.20;;
25127;SDS011;13107;51.304;6.866;2023-03-14T06:31:18;3.15;;;0.30;;
25127;SDS011;13107;51.304;6.866;2023-03-14T06:35:20;0.70;;;0.20;;
25127;SDS011;13107;51.304;6.866;2023-03-14T06:39:22;0.40;;;0.10;;
25127;SDS011;13107;51.304;6.866;2023-03-14T06:43:23;0.62;;;0.17;;
25127;SDS011;13107;51.304;6.866;2023-03-14T06:47:25;1.37;;;0.17;;
25127;SDS011;13107;51.304;6.866;2023-03-14T06:51:27;1.25;;;0.20;;
25127;SDS011;13107;51.304;6.866;2023-03-14T06:55:28;0.45;;;0.20;;
25127;SDS011;13107;51.304;6.866;2023-03-14T06:59:30;0.88;;;0.25;;
25127;SDS011;13107;51.304;6.866;2023-03-14T07:03:32;0.82;;;0.10;;
25127;SDS011;13107;51.304;6.866;2023-03-14T07:07:33;1.08;;;0.20;;
25127;SDS011;13107;51.304;6.866;2023-03-14T07:11:35;0.40;;;0.10;;
25127;SDS011;13107;51.304;6.866;2023-03-14T07:15:37;0.85;;;0.13;;
25127;SDS011;13107;51.304;6.866;2023-03-14T07:19:39;0.32;;;0.10;;
25127;SDS011;13107;51.304;6.866;2023-03-14T07:23:40;0.50;;;0.20;;
25127;SDS011;13107;51.304;6.866;2023-03-14T07:27:43;0.95;;;0.20;;
25127;SDS011;13107;51.304;6.866;2023-03-14T07:31:45;0.30;;;0.20;;
25127;SDS011;13107;51.304;6.866;2023-03-14T07:35:47;1.05;;;0.20;;
25127;SDS011;13107;51.304;6.866;2023-03-14T07:39:49;0.75;;;0.30;;
25127;SDS011;13107;51.304;6.866;2023-03-14T07:43:51;0.28;;;0.15;;
25127;SDS011;13107;51.304;6.866;2023-03-14T07:47:53;0.45;;;0.32;;
25127;SDS011;13107;51.304;6.866;2023-03-14T07:51:58;0.70;;;0.37;;
25127;SDS011;13107;51.304;6.866;2023-03-14T07:56:00;2.05;;;0.40;;
25127;SDS011;13107;51.304;6.866;2023-03-14T08:00:01;1.27;;;0.40;;
25127;SDS011;13107;51.304;6.866;2023-03-14T08:04:06;5.40;;;0.50;;
25127;SDS011;13107;51.304;6.866;2023-03-14T08:08:08;1.15;;;0.35;;
25127;SDS011;13107;51.304;6.866;2023-03-14T08:12:10;0.80;;;0.43;;
25127;SDS011;13107;51.304;6.866;2023-03-14T08:16:11;0.85;;;0.40;;
25127;SDS011;13107;51.304;6.866;2023-03-14T08:20:13;1.05;;;0.30;;
25127;SDS011;13107;51.304;6.866;2023-03-14T08:24:15;1.08;;;0.43;;
25127;SDS011;13107;51.304;6.866;2023-03-14T08:28:17;0.90;;;0.50;;
25127;SDS011;13107;51.304;6.866;2023-03-14T08:32:19;2.87;;;0.50;;
25127;SDS011;13107;51.304;6.866;2023-03-14T08:36:21;0.60;;;0.40;;
25127;SDS011;13107;51.304;6.866;2023-03-14T08:40:24;0.90;;;0.57;;
25127;SDS011;13107;51.304;6.866;2023-03-14T08:44:26;1.40;;;0.70;;
25127;SDS011;13107;51.304;6.866;2023-03-14T08:48:28;5.85;;;0.70;;
25127;SDS011;13107;51.304;6.866;2023-03-14T08:52:31;1.02;;;0.60;;
25127;SDS011;13107;51.304;6.866;2023-03-14T08:56:33;2.85;;;1.10;;
25127;SDS011;13107;51.304;6.866;2023-03-14T09:00:34;1.30;;;0.90;;
25127;SDS011;13107;51.304;6.866;2023-03-14T09:04:36;1.33;;;0.80;;
25127;SDS011;13107;51.304;6.866;2023-03-14T09:08:38;1.20;;;0.55;;
25127;SDS011;13107;51.304;6.866;2023-03-14T09:12:40;1.70;;;0.75;;
25127;SDS011;13107;51.304;6.866;2023-03-14T09:16:41;1.62;;;0.70;;
25127;SDS011;13107;51.304;6.866;2023-03-14T09:20:43;0.70;;;0.50;;
25127;SDS011;13107;51.304;6.866;2023-03-14T09:24:45;3.05;;;0.75;;
25127;SDS011;13107;51.304;6.866;2023-03-14T09:28:47;0.70;;;0.20;;
25127;SDS011;13107;51.304;6.866;2023-03-14T09:32:48;0.15;;;0.10;;
25127;SDS011;13107;51.304;6.866;2023-03-14T09:36:50;0.43;;;0.20;;
25127;SDS011;13107;51.304;6.866;2023-03-14T09:40:52;0.93;;;0.20;;
25127;SDS011;13107;51.304;6.866;2023-03-14T09:45:02;1.08;;;0.47;;
25127;SDS011;13107;51.304;6.866;2023-03-14T09:49:15;0.73;;;0.32;;
25127;SDS011;13107;51.304;6.866;2023-03-14T09:53:24;1.65;;;0.50;;
25127;SDS011;13107;51.304;6.866;2023-03-14T09:57:29;1.12;;;0.47;;
25127;SDS011;13107;51.304;6.866;2023-03-14T10:01:34;1.62;;;0.60;;
25127;SDS011;13107;51.304;6.866;2023-03-14T10:05:37;2.20;;;0.68;;
25127;SDS011;13107;51.304;6.866;2023-03-14T10:09:39;1.67;;;0.70;;
25127;SDS011;13107;51.304;6.866;2023-03-14T10:14:02;1.83;;;1.00;;
25127;SDS011;13107;51.304;6.866;2023-03-14T10:18:13;2.35;;;1.40;;
25127;SDS011;13107;51.304;6.866;2023-03-14T10:22:15;2.78;;;2.00;;
25127;SDS011;13107;51.304;6.866;2023-03-14T10:26:23;1.87;;;1.55;;
25127;SDS011;13107;51.304;6.866;2023-03-14T10:30:40;2.37;;;1.50;;
25127;SDS011;13107;51.304;6.866;2023-03-14T10:34:46;2.00;;;1.45;;
25127;SDS011;13107;51.304;6.866;2023-03-14T10:39:25;2.50;;;1.67;;
25127;SDS011;13107;51.304;6.866;2023-03-14T10:43:33;2.00;;;1.50;;
25127;SDS011;13107;51.304;6.866;2023-03-14T10:47:38;4.80;;;3.90;;
25127;SDS011;13107;51.304;6.866;2023-03-14T10:51:50;8.85;;;5.05;;
25127;SDS011;13107;51.304;6.866;2023-03-14T10:55:52;2.35;;;1.37;;
25127;SDS011;13107;51.304;6.866;2023-03-14T10:59:55;3.28;;;1.17;;
25127;SDS011;13107;51.304;6.866;2023-03-14T11:08:46;2.97;;;1.23;;
25127;SDS011;13107;51.304;6.866;2023-03-14T11:17:35;4.18;;;0.73;;
25127;SDS011;13107;51.304;6.866;2023-03-14T11:26:41;4.07;;;0.77;;
25127;SDS011;13107;51.304;6.866;2023-03-14T11:34:51;3.53;;;0.85;;
25127;SDS011;13107;51.304;6.866;2023-03-14T11:38:58;5.25;;;1.20;;
25127;SDS011;13107;51.304;6.866;2023-03-14T11:47:37;3.05;;;1.35;;
25127;SDS011;13107;51.304;6.866;2023-03-14T11:51:43;2.93;;;1.17;;
25127;SDS011;13107;51.304;6.866;2023-03-14T11:55:49;3.92;;;1.23;;
25127;SDS011;13107;51.304;6.866;2023-03-14T11:59:55;2.65;;;1.20;;
25127;SDS011;13107;51.304;6.866;2023-03-14T12:04:02;5.37;;;1.15;;
25127;SDS011;13107;51.304;6.866;2023-03-14T12:12:25;3.53;;;0.80;;
25127;SDS011;13107;51.304;6.866;2023-03-14T12:16:34;3.55;;;1.10;;
25127;SDS011;13107;51.304;6.866;2023-03-14T12:20:41;3.35;;;0.98;;
25127;SDS011;13107;51.304;6.866;2023-03-14T12:24:57;3.15;;;1.40;;
25127;SDS011;13107;51.304;6.866;2023-03-14T12:29:15;6.97;;;1.17;;
25127;SDS011;13107;51.304;6.866;2023-03-14T12:37:22;7.53;;;1.60;;
25127;SDS011;13107;51.304;6.866;2023-03-14T12:41:43;10.32;;;2.30;;
25127;SDS011;13107;51.304;6.866;2023-03-14T12:46:06;6.47;;;2.78;;
25127;SDS011;13107;51.304;6.866;2023-03-14T12:50:16;4.93;;;1.67;;
25127;SDS011;13107;51.304;6.866;2023-03-14T12:58:35;6.43;;;1.48;;
25127;SDS011;13107;51.304;6.866;2023-03-14T13:02:45;5.87;;;1.00;;
25127;SDS011;13107;51.304;6.866;2023-03-14T13:06:53;7.97;;;1.45;;
25127;SDS011;13107;51.304;6.866;2023-03-14T13:10:58;9.85;;;2.30;;
25127;SDS011;13107;51.304;6.866;2023-03-14T13:15:00;10.90;;;2.55;;
25127;SDS011;13107;51.304;6.866;2023-03-14T13:19:15;8.43;;;2.00;;
25127;SDS011;13107;51.304;6.866;2023-03-14T13:23:23;10.57;;;2.00;;
25127;SDS011;13107;51.304;6.866;2023-03-14T13:27:31;17.15;;;2.20;;
25127;SDS011;13107;51.304;6.866;2023-03-14T13:31:35;6.45;;;1.40;;
25127;SDS011;13107;51.304;6.866;2023-03-14T13:35:44;11.95;;;1.73;;
25127;SDS011;13107;51.304;6.866;2023-03-14T13:39:57;15.02;;;2.75;;
25127;SDS011;13107;51.304;6.866;2023-03-14T13:44:02;15.27;;;1.65;;
25127;SDS011;13107;51.304;6.866;2023-03-14T13:48:09;14.50;;;2.65;;
25127;SDS011;13107;51.304;6.866;2023-03-14T13:52:23;15.70;;;2.40;;
25127;SDS011;13107;51.304;6.866;2023-03-14T13:56:32;11.57;;;2.20;;
25127;SDS011;13107;51.304;6.866;2023-03-14T14:00:34;17.17;;;2.80;;
25127;SDS011;13107;51.304;6.866;2023-03-14T14:04:36;10.27;;;2.03;;
25127;SDS011;13107;51.304;6.866;2023-03-14T14:08:40;11.38;;;2.12;;
25127;SDS011;13107;51.304;6.866;2023-03-14T14:12:45;13.45;;;2.33;;
25127;SDS011;13107;51.304;6.866;2023-03-14T14:16:53;14.00;;;2.20;;
25127;SDS011;13107;51.304;6.866;2023-03-14T14:20:55;10.38;;;2.30;;
25127;SDS011;13107;51.304;6.866;2023-03-14T14:24:57;14.02;;;2.10;;
25127;SDS011;13107;51.304;6.866;2023-03-14T14:29:04;11.70;;;2.60;;
25127;SDS011;13107;51.304;6.866;2023-03-14T14:33:17;11.20;;;1.83;;
25127;SDS011;13107;51.304;6.866;2023-03-14T14:37:24;7.40;;;1.70;;
25127;SDS011;13107;51.304;6.866;2023-03-14T14:41:29;11.68;;;1.67;;
25127;SDS011;13107;51.304;6.866;2023-03-14T14:45:33;10.27;;;1.80;;
25127;SDS011;13107;51.304;6.866;2023-03-14T14:49:36;15.15;;;2.80;;
25127;SDS011;13107;51.304;6.866;2023-03-14T14:53:39;11.45;;;1.67;;
25127;SDS011;13107;51.304;6.866;2023-03-14T14:57:51;5.87;;;1.00;;
25127;SDS011;13107;51.304;6.866;2023-03-14T15:01:58;7.93;;;1.62;;
25127;SDS011;13107;51.304;6.866;2023-03-14T15:06:01;7.55;;;1.15;;
25127;SDS011;13107;51.304;6.866;2023-03-14T15:10:04;6.43;;;1.42;;
25127;SDS011;13107;51.304;6.866;2023-03-14T15:14:06;5.12;;;0.70;;
25127;SDS011;13107;51.304;6.866;2023-03-14T15:18:10;7.72;;;1.08;;
25127;SDS011;13107;51.304;6.866;2023-03-14T15:22:19;9.23;;;1.20;;
25127;SDS011;13107;51.304;6.866;2023-03-14T15:26:22;7.65;;;1.33;;
25127;SDS011;13107;51.304;6.866;2023-03-14T15:30:25;6.78;;;1.12;;
25127;SDS011;13107;51.304;6.866;2023-03-14T15:34:27;7.90;;;1.12;;
25127;SDS011;13107;51.304;6.866;2023-03-14T15:38:29;5.25;;;1.15;;
25127;SDS011;13107;51.304;6.866;2023-03-14T15:42:31;8.77;;;1.37;;
25127;SDS011;13107;51.304;6.866;2023-03-14T15:46:32;7.20;;;1.45;;
25127;SDS011;13107;51.304;6.866;2023-03-14T15:50:34;9.52;;;1.37;;
25127;SDS011;13107;51.304;6.866;2023-03-14T15:54:36;6.25;;;1.20;;
25127;SDS011;13107;51.304;6.866;2023-03-14T15:58:37;5.28;;;1.00;;
25127;SDS011;13107;51.304;6.866;2023-03-14T16:02:41;8.25;;;0.98;;
25127;SDS011;13107;51.304;6.866;2023-03-14T16:06:43;4.87;;;1.02;;
25127;SDS011;13107;51.304;6.866;2023-03-14T16:10:46;4.53;;;1.10;;
25127;SDS011;13107;51.304;6.866;2023-03-14T16:14:47;10.65;;;1.30;;
25127;SDS011;13107;51.304;6.866;2023-03-14T16:18:49;7.87;;;1.05;;
25127;SDS011;13107;51.304;6.866;2023-03-14T16:22:51;8.63;;;1.37;;
25127;SDS011;13107;51.304;6.866;2023-03-14T16:26:52;6.30;;;1.05;;
25127;SDS011;13107;51.304;6.866;2023-03-14T16:31:04;8.63;;;1.10;;
25127;SDS011;13107;51.304;6.866;2023-03-14T16:35:07;9.38;;;1.20;;
25127;SDS011;13107;51.304;6.866;2023-03-14T16:39:09;6.35;;;1.10;;
25127;SDS011;13107;51.304;6.866;2023-03-14T16:43:11;7.25;;;1.02;;
25127;SDS011;13107;51.304;6.866;2023-03-14T16:47:16;7.68;;;1.00;;
25127;SDS011;13107;51.304;6.866;2023-03-14T16:51:18;10.93;;;1.08;;
25127;SDS011;13107;51.304;6.866;2023-03-14T16:55:20;7.20;;;1.00;;
25127;SDS011;13107;51.304;6.866;2023-03-14T16:59:22;7.85;;;1.08;;
25127;SDS011;13107;51.304;6.866;2023-03-14T17:03:26;4.30;;;1.00;;
25127;SDS011;13107;51.304;6.866;2023-03-14T17:07:27;5.40;;;0.77;;
25127;SDS011;13107;51.304;6.866;2023-03-14T17:11:30;9.00;;;1.48;;
25127;SDS011;13107;51.304;6.866;2023-03-14T17:15:35;8.77;;;1.02;;
25127;SDS011;13107;51.304;6.866;2023-03-14T17:19:37;5.18;;;0.88;;
25127;SDS011;13107;51.304;6.866;2023-03-14T17:23:39;4.97;;;1.20;;
25127;SDS011;13107;51.304;6.866;2023-03-14T17:27:41;5.82;;;1.17;;
25127;SDS011;13107;51.304;6.866;2023-03-14T17:31:45;7.35;;;1.23;;
25127;SDS011;13107;51.304;6.866;2023-03-14T17:35:47;6.05;;;1.00;;
25127;SDS011;13107;51.304;6.866;2023-03-14T17:39:49;9.05;;;1.40;;
25127;SDS011;13107;51.304;6.866;2023-03-14T17:43:51;9.35;;;1.83;;
25127;SDS011;13107;51.304;6.866;2023-03-14T17:47:52;6.30;;;1.40;;
25127;SDS011;13107;51.304;6.866;2023-03-14T17:51:54;10.07;;;1.42;;
25127;SDS011;13107;51.304;6.866;2023-03-14T17:55:56;8.05;;;1.15;;
25127;SDS011;13107;51.304;6.866;2023-03-14T17:59:58;6.72;;;1.48;;
25127;SDS011;13107;51.304;6.866;2023-03-14T18:04:00;12.85;;;2.78;;
25127;SDS011;13107;51.304;6.866;2023-03-14T18:08:02;8.20;;;1.48;;
25127;SDS011;13107;51.304;6.866;2023-03-14T18:12:03;8.43;;;2.50;;
25127;SDS011;13107;51.304;6.866;2023-03-14T18:16:11;9.82;;;1.27;;
25127;SDS011;13107;51.304;6.866;2023-03-14T18:20:17;4.18;;;0.82;;
25127;SDS011;13107;51.304;6.866;2023-03-14T18:24:19;6.90;;;1.20;;
25127;SDS011;13107;51.304;6.866;2023-03-14T18:28:21;5.43;;;1.45;;
25127;SDS011;13107;51.304;6.866;2023-03-14T18:32:23;10.27;;;1.35;;
25127;SDS011;13107;51.304;6.866;2023-03-14T18:36:25;6.78;;;1.25;;
25127;SDS011;13107;51.304;6.866;2023-03-14T18:40:27;7.45;;;1.42;;
25127;SDS011;13107;51.304;6.866;2023-03-14T18:44:28;8.18;;;2.05;;
25127;SDS011;13107;51.304;6.866;2023-03-14T18:48:30;8.80;;;2.00;;
25127;SDS011;13107;51.304;6.866;2023-03-14T18:52:33;8.93;;;3.75;;
25127;SDS011;13107;51.304;6.866;2023-03-14T18:56:34;7.90;;;2.30;;
25127;SDS011;13107;51.304;6.866;2023-03-14T19:00:37;9.73;;;1.83;;
25127;SDS011;13107;51.304;6.866;2023-03-14T19:04:38;12.68;;;3.75;;
25127;SDS011;13107;51.304;6.866;2023-03-14T19:08:40;6.72;;;1.95;;
25127;SDS011;13107;51.304;6.866;2023-03-14T19:12:42;10.73;;;2.50;;
25127;SDS011;13107;51.304;6.866;2023-03-14T19:16:44;6.72;;;2.12;;
25127;SDS011;13107;51.304;6.866;2023-03-14T19:20:54;8.65;;;1.77;;
25127;SDS011;13107;51.304;6.866;2023-03-14T19:24:57;11.15;;;1.83;;
25127;SDS011;13107;51.304;6.866;2023-03-14T19:28:59;10.30;;;1.67;;
25127;SDS011;13107;51.304;6.866;2023-03-14T19:33:01;9.98;;;1.10;;
25127;SDS011;13107;51.304;6.866;2023-03-14T19:37:03;9.77;;;1.77;;
25127;SDS011;13107;51.304;6.866;2023-03-14T19:41:05;8.52;;;3.28;;
25127;SDS011;13107;51.304;6.866;2023-03-14T19:45:07;13.18;;;3.67;;
25127;SDS011;13107;51.304;6.866;2023-03-14T19:49:10;9.02;;;2.65;;
25127;SDS011;13107;51.304;6.866;2023-03-14T19:53:12;12.82;;;4.93;;
25127;SDS011;13107;51.304;6.866;2023-03-14T19:57:15;10.18;;;3.00;;
25127;SDS011;13107;51.304;6.866;2023-03-14T20:01:17;10.77;;;2.12;;
25127;SDS011;13107;51.304;6.866;2023-03-14T20:05:19;7.03;;;3.00;;
25127;SDS011;13107;51.304;6.866;2023-03-14T20:09:23;10.02;;;2.05;;
25127;SDS011;13107;51.304;6.866;2023-03-14T20:13:24;10.55;;;2.65;;
25127;SDS011;13107;51.304;6.866;2023-03-14T20:17:27;7.20;;;1.75;;
25127;SDS011;13107;51.304;6.866;2023-03-14T20:21:30;12.25;;;2.17;;
25127;SDS011;13107;51.304;6.866;2023-03-14T20:25:32;8.43;;;1.73;;
25127;SDS011;13107;51.304;6.866;2023-03-14T20:29:35;8.02;;;1.62;;
25127;SDS011;13107;51.304;6.866;2023-03-14T20:33:37;8.52;;;1.58;;
25127;SDS011;13107;51.304;6.866;2023-03-14T20:37:39;10.90;;;4.05;;
25127;SDS011;13107;51.304;6.866;2023-03-14T20:41:41;11.88;;;3.00;;
25127;SDS011;13107;51.304;6.866;2023-03-14T20:45:43;10.73;;;2.67;;
25127;SDS011;13107;51.304;6.866;2023-03-14T20:49:51;17.05;;;7.47;;
25127;SDS011;13107;51.304;6.866;2023-03-14T20:53:53;13.52;;;5.57;;
25127;SDS011;13107;51.304;6.866;2023-03-14T20:57:55;8.85;;;3.25;;
25127;SDS011;13107;51.304;6.866;2023-03-14T21:01:57;8.95;;;2.53;;
25127;SDS011;13107;51.304;6.866;2023-03-14T21:05:59;13.80;;;3.83;;
25127;SDS011;13107;51.304;6.866;2023-03-14T21:10:00;10.65;;;2.30;;
25127;SDS011;13107;51.304;6.866;2023-03-14T21:14:03;11.88;;;2.75;;
25127;SDS011;13107;51.304;6.866;2023-03-14T21:18:05;9.25;;;2.70;;
25127;SDS011;13107;51.304;6.866;2023-03-14T21:22:07;12.05;;;3.10;;
25127;SDS011;13107;51.304;6.866;2023-03-14T21:26:08;11.65;;;2.67;;
25127;SDS011;13107;51.304;6.866;2023-03-14T21:30:10;13.50;;;4.65;;
25127;SDS011;13107;51.304;6.866;2023-03-14T21:34:12;13.13;;;3.70;;
25127;SDS011;13107;51.304;6.866;2023-03-14T21:38:14;21.33;;;6.12;;
25127;SDS011;13107;51.304;6.866;2023-03-14T21:42:16;46.13;;;15.95;;
25127;SDS011;13107;51.304;6.866;2023-03-14T21:46:18;10.23;;;2.35;;
25127;SDS011;13107;51.304;6.866;2023-03-14T21:50:20;9.68;;;1.70;;
25127;SDS011;13107;51.304;6.866;2023-03-14T21:54:26;13.27;;;2.53;;
25127;SDS011;13107;51.304;6.866;2023-03-14T21:58:29;7.50;;;2.87;;
25127;SDS011;13107;51.304;6.866;2023-03-14T22:02:31;9.40;;;2.05;;
25127;SDS011;13107;51.304;6.866;2023-03-14T22:06:32;11.20;;;1.55;;
25127;SDS011;13107;51.304;6.866;2023-03-14T22:10:35;7.07;;;1.45;;
25127;SDS011;13107;51.304;6.866;2023-03-14T22:14:36;12.57;;;2.47;;
25127;SDS011;13107;51.304;6.866;2023-03-14T22:18:38;12.60;;;1.52;;
25127;SDS011;13107;51.304;6.866;2023-03-14T22:22:40;8.25;;;1.33;;
25127;SDS011;13107;51.304;6.866;2023-03-14T22:26:42;10.88;;;3.87;;
25127;SDS011;13107;51.304;6.866;2023-03-14T22:30:49;10.57;;;1.90;;
25127;SDS011;13107;51.304;6.866;2023-03-14T22:34:52;14.40;;;1.90;;
25127;SDS011;13107;51.304;6.866;2023-03-14T22:38:54;10.65;;;1.90;;
25127;SDS011;13107;51.304;6.866;2023-03-14T22:42:55;10.73;;;2.40;;
25127;SDS011;13107;51.304;6.866;2023-03-14T22:46:58;11.90;;;1.87;;
25127;SDS011;13107;51.304;6.866;2023-03-14T22:51:05;5.28;;;1.30;;
25127;SDS011;13107;51.304;6.866;2023-03-14T22:55:08;8.40;;;2.00;;
25127;SDS011;13107;51.304;6.866;2023-03-14T22:59:10;8.80;;;1.90;;
25127;SDS011;13107;51.304;6.866;2023-03-14T23:03:15;15.88;;;1.92;;
25127;SDS011;13107;51.304;6.866;2023-03-14T23:07:16;8.70;;;1.52;;
25127;SDS011;13107;51.304;6.866;2023-03-14T23:11:18;8.88;;;1.60;;
25127;SDS011;13107;51.304;6.866;2023-03-14T23:15:20;9.40;;;1.62;;
25127;SDS011;13107;51.304;6.866;2023-03-14T23:19:22;7.37;;;1.55;;
25127;SDS011;13107;51.304;6.866;2023-03-14T23:23:25;8.02;;;1.90;;
25127;SDS011;13107;51.304;6.866;2023-03-14T23:27:27;16.37;;;1.77;;
25127;SDS011;13107;51.304;6.866;2023-03-14T23:31:29;10.25;;;1.50;;
25127;SDS011;13107;51.304;6.866;2023-03-14T23:35:31;13.57;;;1.85;;
25127;SDS011;13107;51.304;6.866;2023-03-14T23:39:33;9.88;;;2.00;;
25127;SDS011;13107;51.304;6.866;2023-03-14T23:43:35;9.95;;;1.90;;
25127;SDS011;13107;51.304;6.866;2023-03-14T23:47:37;7.95;;;2.05;;
25127;SDS011;13107;51.304;6.866;2023-03-14T23:51:38;10.48;;;2.20;;
25127;SDS011;13107;51.304;6.866;2023-03-14T23:55:40;9.82;;;2.22;;
25127;SDS011;13107;51.304;6.866;2023-03-14T23:59:42;9.65;;;2.47;;
